createdAt,value
2019-03-23T00:00:51.821Z,95.23
2019-03-23T00:03:19.351Z,97.20
2019-03-23T00:05:46.695Z,94.17
2019-03-23T00:08:16.043Z,91.33
2019-03-23T00:10:43.462Z,93.33
2019-03-23T00:13:10.888Z,99.33
2019-03-23T00:15:38.208Z,94.53
2019-03-23T00:18:05.627Z,100.73
2019-03-23T00:20:32.938Z,102.80
2019-03-23T00:23:00.265Z,102.80
2019-03-23T00:25:27.630Z,104.93
2019-03-23T00:27:54.955Z,102.53
2019-03-23T00:30:22.706Z,100.30
2019-03-23T00:32:50.013Z,103.63
2019-03-23T00:35:18.438Z,100.87
2019-03-23T00:37:45.787Z,96.57
2019-03-23T00:40:13.114Z,93.37
2019-03-23T00:42:40.472Z,88.67
2019-03-23T00:45:08.296Z,94.47
2019-03-23T00:47:35.643Z,89.80
2019-03-23T00:50:03.809Z,88.27
2019-03-23T00:52:31.189Z,88.60
2019-03-23T00:54:58.581Z,88.67
2019-03-23T00:57:25.968Z,87.47
2019-03-23T00:59:53.343Z,94.97
2019-03-23T01:02:21.337Z,90.87
2019-03-23T01:04:48.734Z,92.87
2019-03-23T01:07:16.178Z,91.77
2019-03-23T01:09:43.512Z,90.00
2019-03-23T01:12:10.832Z,85.80
2019-03-23T01:14:38.202Z,91.13
2019-03-23T01:17:05.602Z,90.43
2019-03-23T01:19:33.074Z,90.47
2019-03-23T01:22:00.492Z,89.13
2019-03-23T01:24:27.793Z,96.27
2019-03-23T01:26:55.184Z,92.33
2019-03-23T01:29:22.606Z,92.33
2019-03-23T01:31:49.964Z,93.20
2019-03-23T01:34:17.328Z,93.63
2019-03-23T01:36:44.652Z,94.50
2019-03-23T01:39:12.120Z,92.33
2019-03-23T01:41:39.564Z,95.67
2019-03-23T01:44:07.024Z,89.27
2019-03-23T01:46:34.468Z,94.90
2019-03-23T01:49:03.526Z,82.53
2019-03-23T01:51:30.879Z,93.13
2019-03-23T01:53:58.278Z,91.87
2019-03-23T01:56:25.649Z,89.77
2019-03-23T01:58:52.999Z,88.43
2019-03-23T02:01:20.431Z,90.57
2019-03-23T02:03:47.845Z,88.60
2019-03-23T02:06:15.331Z,87.20
2019-03-23T02:08:42.652Z,84.60
2019-03-23T02:11:10.084Z,91.50
2019-03-23T02:13:37.463Z,92.17
2019-03-23T02:16:04.796Z,84.97
2019-03-23T02:18:32.414Z,89.13
2019-03-23T02:20:59.811Z,89.77
2019-03-23T02:23:27.203Z,85.63
2019-03-23T02:25:54.633Z,85.60
2019-03-23T02:28:21.968Z,84.60
2019-03-23T02:30:49.381Z,79.77
2019-03-23T02:33:16.748Z,89.00
2019-03-23T02:35:44.148Z,99.00
2019-03-23T02:38:11.559Z,96.33
2019-03-23T02:40:38.906Z,105.03
2019-03-23T02:43:06.361Z,93.37
2019-03-23T02:45:33.722Z,102.50
2019-03-23T02:48:01.078Z,78.57
2019-03-23T02:50:28.424Z,80.27
2019-03-23T02:52:55.758Z,89.33
2019-03-23T02:55:23.075Z,79.63
2019-03-23T02:57:50.436Z,81.67
2019-03-23T03:00:17.883Z,75.13
2019-03-23T03:02:45.266Z,72.77
2019-03-23T03:05:12.795Z,71.20
2019-03-23T03:07:42.557Z,66.40
2019-03-23T03:10:09.932Z,70.17
2019-03-23T03:12:37.293Z,64.90
2019-03-23T03:15:06.273Z,63.97
2019-03-23T03:17:33.693Z,64.27
2019-03-23T03:20:01.006Z,63.53
2019-03-23T03:22:28.360Z,62.87
2019-03-23T03:24:56.035Z,55.97
2019-03-23T03:27:23.365Z,60.13
2019-03-23T03:29:51.452Z,52.17
2019-03-23T03:32:18.944Z,60.30
2019-03-23T03:34:46.273Z,63.37
2019-03-23T03:37:13.693Z,56.50
2019-03-23T03:39:41.107Z,52.97
2019-03-23T03:42:08.543Z,54.60
2019-03-23T03:44:35.864Z,55.60
2019-03-23T03:47:03.296Z,50.53
2019-03-23T03:49:30.631Z,49.90
2019-03-23T03:51:59.722Z,51.73
2019-03-23T03:54:27.037Z,53.87
2019-03-23T03:56:54.404Z,50.67
2019-03-23T03:59:23.487Z,51.57
2019-03-23T04:01:50.788Z,54.07
2019-03-23T04:04:18.149Z,47.80
2019-03-23T04:06:45.475Z,54.00
2019-03-23T04:09:12.848Z,48.17
2019-03-23T04:11:40.168Z,51.60
2019-03-23T04:14:07.532Z,51.10
2019-03-23T04:16:34.980Z,48.67
2019-03-23T04:19:02.431Z,45.73
2019-03-23T04:21:29.816Z,48.80
2019-03-23T04:23:57.150Z,48.63
2019-03-23T04:26:24.478Z,47.83
2019-03-23T04:28:51.806Z,49.10
2019-03-23T04:31:19.182Z,45.87
2019-03-23T04:33:46.576Z,46.33
2019-03-23T04:36:13.919Z,43.50
2019-03-23T04:38:41.301Z,44.40
2019-03-23T04:41:08.623Z,44.33
2019-03-23T04:43:35.964Z,47.23
2019-03-23T04:46:03.379Z,44.43
2019-03-23T04:48:30.698Z,45.43
2019-03-23T04:50:58.047Z,46.63
2019-03-23T04:53:25.433Z,45.13
2019-03-23T04:55:52.836Z,49.80
2019-03-23T04:58:20.666Z,47.10
2019-03-23T05:00:48.031Z,44.80
2019-03-23T05:03:15.799Z,45.03
2019-03-23T05:05:43.148Z,44.93
2019-03-23T05:08:10.500Z,45.93
2019-03-23T05:10:37.826Z,43.97
2019-03-23T05:13:05.181Z,43.43
2019-03-23T05:15:32.580Z,45.23
2019-03-23T05:17:59.984Z,43.77
2019-03-23T05:20:28.289Z,42.57
2019-03-23T05:22:55.611Z,45.00
2019-03-23T05:25:24.170Z,44.37
2019-03-23T05:27:51.443Z,46.73
2019-03-23T05:30:18.777Z,46.63
2019-03-23T05:32:46.207Z,45.67
2019-03-23T05:35:13.580Z,48.90
2019-03-23T05:37:40.951Z,47.30
2019-03-23T05:40:08.311Z,47.37
2019-03-23T05:42:35.781Z,48.70
2019-03-23T05:45:03.325Z,45.93
2019-03-23T05:47:30.651Z,48.27
2019-03-23T05:49:58.069Z,47.43
2019-03-23T05:52:25.625Z,44.87
2019-03-23T05:54:53.011Z,48.03
2019-03-23T05:57:20.340Z,45.73
2019-03-23T05:59:47.831Z,46.23
2019-03-23T06:02:18.180Z,44.70
2019-03-23T06:04:45.635Z,43.53
2019-03-23T06:07:13.041Z,39.50
2019-03-23T06:09:40.363Z,41.93
2019-03-23T06:12:07.828Z,44.33
2019-03-23T06:14:35.229Z,43.60
2019-03-23T06:17:02.585Z,42.83
2019-03-23T06:19:29.909Z,40.23
2019-03-23T06:21:57.280Z,39.03
2019-03-23T06:24:24.652Z,36.17
2019-03-23T06:26:52.035Z,35.80
2019-03-23T06:29:19.425Z,36.50
2019-03-23T06:31:46.743Z,33.03
2019-03-23T06:34:14.098Z,31.87
2019-03-23T06:36:41.643Z,32.87
2019-03-23T06:39:08.995Z,29.80
2019-03-23T06:41:36.360Z,30.43
2019-03-23T06:44:03.682Z,28.73
2019-03-23T06:46:31.011Z,26.93
2019-03-23T06:48:58.537Z,32.93
2019-03-23T06:51:27.040Z,28.03
2019-03-23T06:53:54.379Z,30.93
2019-03-23T06:56:23.341Z,28.67
2019-03-23T06:58:50.731Z,28.07
2019-03-23T07:01:18.154Z,29.10
2019-03-23T07:03:45.484Z,31.63
2019-03-23T07:06:12.898Z,29.60
2019-03-23T07:08:40.339Z,28.40
2019-03-23T07:11:07.835Z,30.73
2019-03-23T07:13:35.302Z,29.57
2019-03-23T07:16:03.198Z,31.80
2019-03-23T07:18:31.007Z,28.73
2019-03-23T07:20:58.387Z,28.57
2019-03-23T07:23:25.814Z,31.20
2019-03-23T07:25:53.415Z,31.23
2019-03-23T07:28:30.020Z,31.27
2019-03-23T07:30:57.498Z,32.17
2019-03-23T07:33:24.967Z,33.57
2019-03-23T07:35:54.466Z,32.30
2019-03-23T07:38:23.911Z,30.17
2019-03-23T07:40:54.705Z,30.63
2019-03-23T07:43:22.372Z,32.30
2019-03-23T07:45:50.823Z,31.63
2019-03-23T07:48:18.403Z,32.77
2019-03-23T07:50:45.939Z,33.57
2019-03-23T07:53:13.357Z,32.63
2019-03-23T07:55:40.804Z,33.10
2019-03-23T07:58:13.068Z,33.13
2019-03-23T08:00:41.096Z,32.43
2019-03-23T08:03:08.614Z,33.03
2019-03-23T08:05:36.032Z,33.00
2019-03-23T08:08:03.517Z,35.23
2019-03-23T08:10:35.052Z,37.00
2019-03-23T08:13:02.496Z,33.93
2019-03-23T08:15:34.406Z,33.83
2019-03-23T08:18:01.764Z,34.47
2019-03-23T08:20:29.090Z,31.07
2019-03-23T08:22:56.540Z,35.33
2019-03-23T08:25:23.943Z,36.70
2019-03-23T08:27:51.390Z,35.60
2019-03-23T08:30:18.843Z,37.20
2019-03-23T08:32:50.336Z,36.43
2019-03-23T08:35:17.895Z,34.03
2019-03-23T08:37:47.880Z,30.77
2019-03-23T08:40:15.214Z,34.63
2019-03-23T08:42:42.636Z,32.77
2019-03-23T08:45:10.147Z,31.77
2019-03-23T08:47:38.099Z,35.07
2019-03-23T08:50:06.188Z,35.83
2019-03-23T08:52:33.545Z,36.30
2019-03-23T08:55:00.918Z,34.00
2019-03-23T08:57:28.252Z,34.83
2019-03-23T08:59:55.713Z,35.50
2019-03-23T09:02:23.170Z,36.03
2019-03-23T09:04:51.793Z,35.83
2019-03-23T09:07:19.031Z,35.00
2019-03-23T09:09:46.460Z,36.33
2019-03-23T09:12:13.818Z,38.00
2019-03-23T09:14:41.381Z,36.50
2019-03-23T09:17:08.803Z,37.80
2019-03-23T09:19:36.117Z,35.57
2019-03-23T09:22:03.486Z,38.47
2019-03-23T09:24:30.804Z,37.70
2019-03-23T09:26:58.130Z,38.50
2019-03-23T09:29:25.484Z,38.57
2019-03-23T09:31:52.865Z,39.20
2019-03-23T09:34:20.279Z,38.57
2019-03-23T09:36:47.703Z,32.70
2019-03-23T09:39:15.112Z,35.30
2019-03-23T09:41:42.493Z,34.93
2019-03-23T09:44:10.031Z,35.30
2019-03-23T09:46:37.409Z,37.03
2019-03-23T09:49:04.867Z,35.63
2019-03-23T09:51:32.310Z,36.10
2019-03-23T09:53:59.741Z,37.07
2019-03-23T09:56:27.111Z,32.23
2019-03-23T09:58:54.504Z,35.70
2019-03-23T10:01:23.551Z,35.40
2019-03-23T10:03:50.959Z,36.77
2019-03-23T10:06:18.509Z,35.23
2019-03-23T10:08:46.522Z,33.03
2019-03-23T10:11:13.940Z,34.03
2019-03-23T10:13:41.517Z,34.67
2019-03-23T10:16:08.916Z,37.17
2019-03-23T10:18:36.303Z,40.27
2019-03-23T10:21:03.707Z,39.57
2019-03-23T10:23:31.112Z,38.07
2019-03-23T10:26:01.274Z,40.07
2019-03-23T10:28:28.605Z,40.40
2019-03-23T10:30:56.108Z,39.40
2019-03-23T10:33:23.455Z,39.30
2019-03-23T10:35:50.826Z,38.63
2019-03-23T10:38:18.194Z,38.17
2019-03-23T10:40:45.767Z,37.83
2019-03-23T10:43:13.229Z,38.17
2019-03-23T10:45:44.319Z,35.90
2019-03-23T10:48:12.195Z,36.83
2019-03-23T10:50:39.714Z,36.07
2019-03-23T10:53:07.055Z,33.93
2019-03-23T10:55:34.412Z,30.43
2019-03-23T10:58:02.930Z,31.07
2019-03-23T11:00:30.264Z,29.83
2019-03-23T11:02:58.316Z,28.70
2019-03-23T11:05:25.645Z,29.53
2019-03-23T11:07:52.960Z,29.23
2019-03-23T11:10:20.401Z,29.37
2019-03-23T11:12:48.131Z,25.03
2019-03-23T11:15:15.512Z,25.97
2019-03-23T11:17:42.798Z,22.37
2019-03-23T11:20:11.052Z,23.33
2019-03-23T11:22:38.356Z,25.40
2019-03-23T11:25:08.833Z,20.67
2019-03-23T11:27:36.172Z,25.33
2019-03-23T11:30:05.270Z,23.40
2019-03-23T11:32:32.706Z,23.97
2019-03-23T11:35:00.247Z,24.00
2019-03-23T11:37:28.022Z,24.40
2019-03-23T11:39:55.412Z,25.80
2019-03-23T11:42:22.836Z,26.70
2019-03-23T11:44:50.661Z,24.70
2019-03-23T11:47:17.970Z,25.40
2019-03-23T11:49:45.297Z,25.60
2019-03-23T11:52:13.571Z,26.80
2019-03-23T11:54:40.962Z,28.57
2019-03-23T11:57:08.380Z,26.73
2019-03-23T11:59:35.758Z,26.20
2019-03-23T12:02:03.092Z,25.50
2019-03-23T12:04:30.432Z,26.67
2019-03-23T12:06:57.764Z,24.60
2019-03-23T12:09:25.106Z,22.13
2019-03-23T12:11:52.660Z,15.50
2019-03-23T12:14:20.107Z,14.67
2019-03-23T12:16:47.575Z,15.20
2019-03-23T12:19:14.968Z,15.27
2019-03-23T12:21:42.333Z,13.83
2019-03-23T12:24:09.662Z,11.57
2019-03-23T12:26:47.840Z,10.77
2019-03-23T12:29:16.364Z,11.83
2019-03-23T12:31:43.798Z,12.67
2019-03-23T12:34:12.947Z,14.23
2019-03-23T12:36:40.815Z,13.30
2019-03-23T12:39:09.101Z,14.60
2019-03-23T12:41:38.233Z,14.23
2019-03-23T12:44:05.651Z,15.97
2019-03-23T12:46:32.984Z,15.00
2019-03-23T12:49:00.366Z,17.27
2019-03-23T12:51:28.471Z,17.07
2019-03-23T12:54:02.154Z,16.50
2019-03-23T12:56:29.556Z,20.47
2019-03-23T12:58:56.929Z,20.07
2019-03-23T13:01:24.278Z,18.87
2019-03-23T13:03:52.136Z,20.00
2019-03-23T13:06:19.657Z,18.17
2019-03-23T13:08:48.105Z,21.57
2019-03-23T13:11:23.047Z,22.17
2019-03-23T13:13:44.569Z,23.70
2019-03-23T13:16:12.011Z,23.13
2019-03-23T13:18:40.116Z,19.97
2019-03-23T13:21:07.473Z,22.30
2019-03-23T13:23:34.867Z,20.90
2019-03-23T13:26:02.310Z,22.17
2019-03-23T13:28:29.826Z,23.30
2019-03-23T13:30:57.329Z,22.60
2019-03-23T13:33:24.642Z,20.93
2019-03-23T13:35:53.711Z,20.57
2019-03-23T13:38:23.544Z,20.47
2019-03-23T13:40:50.947Z,20.53
2019-03-23T13:43:19.835Z,20.40
2019-03-23T13:45:47.251Z,22.20
2019-03-23T13:48:14.643Z,21.47
2019-03-23T13:50:42.003Z,21.67
2019-03-23T13:53:09.401Z,20.27
2019-03-23T13:55:37.189Z,20.40
2019-03-23T13:58:08.606Z,18.93
2019-03-23T14:00:36.067Z,17.33
2019-03-23T14:03:03.438Z,19.53
2019-03-23T14:05:30.838Z,19.43
2019-03-23T14:07:58.178Z,19.87
2019-03-23T14:10:25.544Z,22.90
2019-03-23T14:12:52.917Z,20.97
2019-03-23T14:15:20.341Z,20.13
2019-03-23T14:17:47.782Z,21.97
2019-03-23T14:20:15.183Z,22.80
2019-03-23T14:22:44.544Z,22.93
2019-03-23T14:25:11.571Z,23.47
2019-03-23T14:27:38.969Z,23.80
2019-03-23T14:30:06.764Z,23.00
2019-03-23T14:32:34.190Z,21.60
2019-03-23T14:35:01.949Z,18.27
2019-03-23T14:37:29.313Z,18.73
2019-03-23T14:39:56.625Z,20.33
2019-03-23T14:42:24.037Z,19.10
2019-03-23T14:44:51.505Z,18.70
2019-03-23T14:47:18.839Z,18.57
2019-03-23T14:49:46.253Z,19.90
2019-03-23T14:52:13.681Z,18.97
2019-03-23T14:54:41.137Z,16.40
2019-03-23T14:57:08.480Z,17.33
2019-03-23T14:59:36.508Z,18.90
2019-03-23T15:02:04.122Z,22.17
2019-03-23T15:04:31.651Z,22.97
2019-03-23T15:06:59.080Z,21.57
2019-03-23T15:09:26.493Z,24.17
2019-03-23T15:11:53.991Z,25.20
2019-03-23T15:14:21.675Z,23.90
2019-03-23T15:16:49.125Z,23.37
2019-03-23T15:19:16.473Z,23.27
2019-03-23T15:21:43.780Z,21.40
2019-03-23T15:24:11.236Z,21.23
2019-03-23T15:26:38.630Z,21.03
2019-03-23T15:29:06.214Z,23.10
2019-03-23T15:31:33.713Z,22.83
2019-03-23T15:34:01.032Z,23.43
2019-03-23T15:36:28.452Z,21.87
2019-03-23T15:38:55.812Z,23.90
2019-03-23T15:41:24.750Z,25.03
2019-03-23T15:43:52.320Z,24.47
2019-03-23T15:46:19.646Z,24.90
2019-03-23T15:48:47.039Z,26.03
2019-03-23T15:51:14.356Z,25.67
2019-03-23T15:53:41.679Z,25.17
2019-03-23T15:56:09.527Z,23.60
2019-03-23T15:58:36.847Z,23.67
2019-03-23T16:01:04.182Z,24.53
2019-03-23T16:03:31.620Z,25.17
2019-03-23T16:05:58.970Z,26.43
2019-03-23T16:08:26.266Z,26.40
2019-03-23T16:10:53.725Z,26.30
2019-03-23T16:13:21.105Z,24.70
2019-03-23T16:15:49.583Z,26.07
2019-03-23T16:18:17.009Z,24.60
2019-03-23T16:20:44.334Z,24.60
2019-03-23T16:23:11.692Z,23.93
2019-03-23T16:25:39.038Z,24.77
2019-03-23T16:28:06.380Z,24.70
2019-03-23T16:30:33.741Z,27.10
2019-03-23T16:33:01.098Z,28.13
2019-03-23T16:35:28.597Z,27.83
2019-03-23T16:37:55.928Z,27.07
2019-03-23T16:40:23.350Z,26.77
2019-03-23T16:42:50.668Z,27.33
2019-03-23T16:45:18.051Z,27.63
2019-03-23T16:47:45.375Z,32.37
2019-03-23T16:50:13.111Z,34.50
2019-03-23T16:52:40.479Z,35.70
2019-03-23T16:55:08.509Z,35.50
2019-03-23T16:57:35.963Z,37.83
2019-03-23T17:00:04.960Z,41.27
2019-03-23T17:02:32.382Z,40.53
2019-03-23T17:04:59.952Z,41.27
2019-03-23T17:07:29.043Z,41.57
2019-03-23T17:09:56.318Z,54.07
2019-03-23T17:12:23.751Z,70.30
2019-03-23T17:14:51.062Z,79.53
2019-03-23T17:17:18.434Z,88.90
2019-03-23T17:19:45.838Z,88.50
2019-03-23T17:22:13.163Z,89.17
2019-03-23T17:24:40.748Z,83.40
2019-03-23T17:27:08.157Z,87.87
2019-03-23T17:29:35.627Z,88.87
2019-03-23T17:32:02.970Z,89.13
2019-03-23T17:34:30.355Z,88.67
2019-03-23T17:36:57.677Z,82.23
2019-03-23T17:39:25.002Z,76.80
2019-03-23T17:41:52.519Z,76.90
2019-03-23T17:44:19.924Z,77.97
2019-03-23T17:46:47.327Z,75.50
2019-03-23T17:49:14.759Z,70.83
2019-03-23T17:51:42.155Z,78.77
2019-03-23T17:54:09.635Z,64.83
2019-03-23T17:56:36.933Z,52.60
2019-03-23T17:59:04.233Z,52.60
2019-03-23T18:01:31.645Z,53.40
2019-03-23T18:03:58.967Z,55.90
2019-03-23T18:06:26.399Z,58.03
2019-03-23T18:08:53.904Z,64.33
2019-03-23T18:11:23.113Z,49.13
2019-03-23T18:13:50.535Z,52.87
2019-03-23T18:16:18.123Z,54.27
2019-03-23T18:18:45.570Z,51.23
2019-03-23T18:21:12.897Z,50.20
2019-03-23T18:23:40.321Z,53.43
2019-03-23T18:26:07.816Z,67.33
2019-03-23T18:28:35.258Z,82.20
2019-03-23T18:31:02.701Z,85.73
2019-03-23T18:33:30.065Z,98.60
2019-03-23T18:35:57.386Z,95.37
2019-03-23T18:38:24.790Z,90.87
2019-03-23T18:40:52.147Z,82.37
2019-03-23T18:43:27.547Z,73.10
2019-03-23T18:45:51.189Z,64.50
2019-03-23T18:48:18.719Z,65.70
2019-03-23T18:50:46.091Z,74.07
2019-03-23T18:53:13.445Z,72.83
2019-03-23T18:55:40.829Z,65.80
2019-03-23T18:58:08.152Z,71.90
2019-03-23T19:00:36.933Z,65.97
2019-03-23T19:03:04.316Z,65.83
2019-03-23T19:05:31.651Z,67.80
2019-03-23T19:07:59.122Z,98.27
2019-03-23T19:10:26.504Z,117.37
2019-03-23T19:12:53.890Z,92.10
2019-03-23T19:15:21.208Z,83.53
2019-03-23T19:17:48.549Z,81.53
2019-03-23T19:20:15.896Z,83.03
2019-03-23T19:22:43.220Z,78.70
2019-03-23T19:25:16.065Z,75.47
2019-03-23T19:27:39.632Z,76.63
2019-03-23T19:30:09.705Z,78.23
2019-03-23T19:32:37.071Z,77.97
2019-03-23T19:35:05.208Z,79.53
2019-03-23T19:37:32.576Z,78.70
2019-03-23T19:39:59.937Z,77.50
2019-03-23T19:42:27.297Z,81.93
2019-03-23T19:44:54.612Z,82.27
2019-03-23T19:47:22.008Z,81.70
2019-03-23T19:49:49.359Z,91.80
2019-03-23T19:52:16.660Z,101.60
2019-03-23T19:54:44.053Z,102.70
2019-03-23T19:57:11.396Z,127.43
2019-03-23T19:59:38.820Z,133.70
2019-03-23T20:02:06.235Z,125.93
2019-03-23T20:04:33.557Z,122.97
2019-03-23T20:07:00.890Z,111.37
2019-03-23T20:09:28.475Z,123.87
2019-03-23T20:11:55.885Z,146.23
2019-03-23T20:14:23.315Z,135.17
2019-03-23T20:16:50.670Z,150.23
2019-03-23T20:19:18.068Z,152.10
2019-03-23T20:21:45.449Z,147.37
2019-03-23T20:24:12.838Z,140.80
2019-03-23T20:26:40.200Z,131.27
2019-03-23T20:29:09.186Z,129.83
2019-03-23T20:31:36.616Z,142.07
2019-03-23T20:34:03.944Z,151.80
2019-03-23T20:36:31.357Z,147.10
2019-03-23T20:38:58.676Z,137.13
2019-03-23T20:41:26.022Z,139.47
2019-03-23T20:43:53.405Z,135.77
2019-03-23T20:46:20.733Z,128.37
2019-03-23T20:48:48.091Z,115.17
2019-03-23T20:51:15.523Z,111.03
2019-03-23T20:53:42.929Z,111.63
2019-03-23T20:56:10.400Z,111.03
2019-03-23T20:58:37.723Z,110.47
2019-03-23T21:01:05.046Z,110.97
2019-03-23T21:03:32.734Z,115.63
2019-03-23T21:06:00.133Z,122.17
2019-03-23T21:08:27.449Z,126.67
2019-03-23T21:10:54.850Z,127.73
2019-03-23T21:13:22.242Z,121.30
2019-03-23T21:15:49.872Z,106.80
2019-03-23T21:18:17.182Z,92.57
2019-03-23T21:20:44.519Z,88.23
2019-03-23T21:23:12.005Z,94.90
2019-03-23T21:25:39.841Z,107.33
2019-03-23T21:28:07.165Z,92.63
2019-03-23T21:30:34.886Z,98.90
2019-03-23T21:33:02.523Z,105.20
2019-03-23T21:35:29.946Z,108.47
2019-03-23T21:37:57.354Z,118.13
2019-03-23T21:40:24.703Z,126.33
2019-03-23T21:42:52.017Z,146.57
2019-03-23T21:45:19.387Z,145.60
2019-03-23T21:47:46.713Z,148.07
2019-03-23T21:50:14.056Z,157.23
2019-03-23T21:52:41.433Z,168.70
2019-03-23T21:55:08.821Z,169.10
2019-03-23T21:57:36.166Z,163.03
2019-03-23T22:00:03.810Z,159.93
2019-03-23T22:02:31.129Z,159.03
2019-03-23T22:04:58.452Z,161.83
2019-03-23T22:07:25.811Z,153.27
2019-03-23T22:09:53.140Z,156.50
2019-03-23T22:12:20.515Z,157.30
2019-03-23T22:14:47.928Z,154.60
2019-03-23T22:17:15.274Z,147.50
2019-03-23T22:19:42.619Z,135.90
2019-03-23T22:22:10.007Z,137.50
2019-03-23T22:24:37.665Z,131.60
2019-03-23T22:27:05.156Z,138.13
2019-03-23T22:29:32.531Z,129.13
2019-03-23T22:31:59.910Z,135.23
2019-03-23T22:34:27.242Z,137.83
2019-03-23T22:36:54.579Z,136.73
2019-03-23T22:39:21.903Z,135.60
2019-03-23T22:41:49.360Z,126.40
2019-03-23T22:44:16.707Z,134.33
2019-03-23T22:46:44.113Z,132.67
2019-03-23T22:49:11.430Z,146.47
2019-03-23T22:51:38.777Z,156.07
2019-03-23T22:54:06.230Z,150.90
2019-03-23T22:56:33.658Z,142.73
2019-03-23T22:59:00.983Z,135.27
2019-03-23T23:01:28.392Z,153.70
2019-03-23T23:03:55.795Z,129.13
2019-03-23T23:06:23.136Z,120.67
2019-03-23T23:08:50.540Z,227.80
2019-03-23T23:11:17.887Z,260.53
2019-03-23T23:13:45.231Z,223.57
2019-03-23T23:16:12.816Z,140.27
2019-03-23T23:18:40.167Z,256.53
2019-03-23T23:21:07.503Z,158.43
2019-03-23T23:23:34.869Z,163.43
2019-03-23T23:26:02.196Z,167.70
2019-03-23T23:28:29.521Z,271.23
2019-03-23T23:30:56.873Z,355.83
2019-03-23T23:33:24.240Z,350.67
2019-03-23T23:35:51.585Z,362.70
2019-03-23T23:38:18.982Z,353.70
2019-03-23T23:40:46.483Z,377.57
2019-03-23T23:43:13.839Z,336.43
2019-03-23T23:45:41.295Z,326.87
2019-03-23T23:48:08.624Z,266.37
2019-03-23T23:50:35.944Z,169.67
2019-03-23T23:53:03.311Z,139.00
2019-03-23T23:55:30.644Z,138.03
2019-03-23T23:57:58.014Z,136.93
